This is the latest recevied weather packets stored in our database for station/object KF7IOR. If no packets are shown the sender has not sent any weather packets the latest 10 day(s).
| Time | Temp. | Humidity | Pressure | Rain* | Wind** | Luminosity | Snow |
|---|---|---|---|---|---|---|---|
| 1777605636 | 20.56° C | 49% | 1013.4 hPa | 0 mm | - | 0 W/m² | - |
| 1777604136 | 22.22° C | 43% | 1013.2 hPa | 0 mm | - | 11 W/m² | - |
| 1777603834 | 22.22° C | 42% | 1013.2 hPa | 0 mm | - | 12 W/m² | - |
| 1777603235 | 23.33° C | 38% | 1013.1 hPa | 0 mm | - | 16 W/m² | - |
| 1777600539 | 26.67° C | 30% | 1013.2 hPa | 0 mm | - | 98 W/m² | - |
| 1777599953 | 26.67° C | 27% | 1013.2 hPa | 0 mm | - | 95 W/m² | - |
| 1777598735 | 27.78° C | 27% | 1013.4 hPa | 0 mm | - | 220 W/m² | - |
| 1777598439 | 27.78° C | 26% | 1013.4 hPa | 0 mm | - | 220 W/m² | - |
| 1777598147 | 28.33° C | 28% | 1013.4 hPa | 0 mm | - | 251 W/m² | - |
| 1777593935 | 28.89° C | 24% | 1013.8 hPa | 0 mm | - | 464 W/m² | - |
| 1777593644 | 28.89° C | 26% | 1013.9 hPa | 0 mm | - | 480 W/m² | - |
| 1777593335 | 28.33° C | 21% | 1013.9 hPa | 0 mm | - | 490 W/m² | - |
| 1777593035 | 28.33° C | 26% | 1014 hPa | 0 mm | - | 503 W/m² | - |
| 1777592746 | 28.89° C | 27% | 1014 hPa | 0 mm | - | 517 W/m² | - |
| 1777592435 | 28.33° C | 25% | 1014.1 hPa | 0 mm | - | 534 W/m² | - |
| 1777590947 | 28.89° C | 24% | 1014.4 hPa | 0 mm | - | 584 W/m² | - |
| 1777590334 | 27.78° C | 28% | 1014.5 hPa | 0 mm | - | 622 W/m² | - |
| 1777589734 | 28.33° C | 28% | 1014.6 hPa | 0 mm | - | 297 W/m² | - |
| 1777587636 | 28.33° C | 35% | 1015 hPa | 0 mm | - | 670 W/m² | - |
| 1777587034 | 28.33° C | 32% | 1015.1 hPa | 0 mm | - | 717 W/m² | - |
| 1777586441 | 27.78° C | 32% | 1015.2 hPa | 0 mm | - | 712 W/m² | - |
| 1777582846 | 26.11° C | 39% | 1016 hPa | 0 mm | - | 694 W/m² | - |
| 1777582535 | 25.56° C | 38% | 1016 hPa | 0 mm | - | 642 W/m² | - |
| 1777578635 | 23.33° C | 42% | 1016.7 hPa | 0 mm | - | 737 W/m² | - |
| 1777578345 | 23.33° C | 40% | 1016.9 hPa | 0 mm | - | 682 W/m² | - |
* Rain latest hour (hover to see other rain measurements)
** Current wind speed in m/s (hover to see current wind gust speed)